Overview Statistics Trail Chart Weather Telemetry Raw packets
 

This is the latest recevied weather packets stored in our database for station/object IZ5MMH-1. If no packets are shown the sender has not sent any weather packets the latest 10 day(s).

<< 54 55 56 57 58 >>
Time Temp. Humidity Pressure Rain* Wind** Luminosity Snow
1787732688 32.22° C 47% 1017.2 hPa - - - -
1787732088 32.22° C 48% 1017.3 hPa - - - -
1787731487 31.67° C 49% 1017.4 hPa - - - -
1787730888 31.67° C 49% 1017.4 hPa - - - -
1787730287 31.67° C 50% 1017.4 hPa - - - -
1787729687 31.11° C 49% 1017.4 hPa - - - -
1787729088 31.67° C 49% 1017.2 hPa - - - -
1787728487 31.11° C 52% 1017.2 hPa - - - -
1787727887 31.11° C 53% 1017.1 hPa - - - -
1787727288 31.11° C 53% 1017.1 hPa - - - -
1787726687 31.11° C 52% 1017.1 hPa - - - -
1787726087 31.11° C 52% 1017.1 hPa - - - -
1787725487 30.56° C 55% 1017.1 hPa - - - -
1787724888 29.44° C 58% 1017.1 hPa - - - -
1787724287 28.89° C 58% 1017.1 hPa - - - -
1787723687 27.78° C 62% 1017.1 hPa - - - -
1787723088 26.67° C 65% 1017.2 hPa - - - -
1787722488 25° C 70% 1017.2 hPa - - - -
1787721887 22.78° C 75% 1017.1 hPa - - - -
1787721288 21.11° C 75% 1017.1 hPa - - - -
1787720688 21.11° C 76% 1016.9 hPa - - - -
1787720088 20.56° C 76% 1017 hPa - - - -
1787719486 20.56° C 74% 1016.8 hPa - - - -
1787718886 20.56° C 75% 1016.6 hPa - - - -
1787718287 20.56° C 75% 1016.3 hPa - - - -

* Rain since midnight (hover to see other rain measurements)
** Current wind speed in m/s (hover to see current wind gust speed)